Thunder radar more information blitzortung!


Radar de pluja more information rain snow radar


Visita la nostra xarxa de llocs de meteo:

Template documentation
and downloads

And another site



No particular awareness of the weather is required.    There are no Weather-warnings

Pagina Historial Weather Underground text

Diari Resum May 14, 2017 Unitats:  Imperial    Mètric   Tant
« Previous Dia
SegĂźent Dia »
Diari Setmana Mensual Anual Personalitzada
  Maxima: Minima: Media:
Temperatura: TemperatureC °F 13.8 °F 20.5 °F
Punt de rosada: DewpointC °F 7.6 °F 10.3 °F
Humitat: Humidity % 42 % 53 %
Wind Speed: WindSpeedKMH mph 0.0 mph 7.4 mph
RĂ fegues de vent: WindSpeedGustKMH mph - -
Vent:- - ESE
Pression baro: PressurehPa in 1018.8 in -
Precipitacions: 0.0 in    
Historical Graphs
 
 
Dades de taula per May 14, 2017
Temps Temperatura Punt de rosada Pression baro Vent Wind Speed RĂ fegues de vent Humitat Rainfall Rate (Hourly)
TemperatureC °F DewpointC °F PressurehPa in Calm     Humidity % HourlyPrecipMM in
00:02 17.3 °F 7.6 °F 1018.8 in West 3.7 mph 3.7 mph 53 % 0.0 in
00:07 17.3 °F 7.6 °F 1018.8 in WNW 3.7 mph 3.7 mph 53 % 0.0 in
03:15 17.2 °F 10.6 °F 1021.9 in SE 1.6 mph 3.2 mph 65 % 0.0 in
03:25 16.9 °F 10.1 °F 1021.9 in NE 4.8 mph 4.8 mph 64 % 0.0 in
03:35 17.0 °F 10.1 °F 1021.9 in NE 1.6 mph 4.8 mph 64 % 0.0 in
03:45 17.1 °F 10.0 °F 1021.9 in NNE 3.2 mph 4.8 mph 63 % 0.0 in
03:55 18.2 °F 11.1 °F 1021.9 in Calm   4.8 mph 63 % 0.0 in
04:05 18.3 °F 10.7 °F 1021.9 in NE 3.2 mph 3.2 mph 61 % 0.0 in
04:15 18.4 °F 10.7 °F 1021.9 in NE 3.2 mph 4.8 mph 61 % 0.0 in
04:25 19.4 °F 11.2 °F 1022.9 in NNE 3.2 mph 4.8 mph 59 % 0.0 in
04:35 18.8 °F 10.9 °F 1022.9 in NNE 4.8 mph 6.4 mph 60 % 0.0 in
04:45 19.9 °F 11.7 °F 1022.9 in NE 1.6 mph 6.4 mph 59 % 0.0 in
04:55 20.6 °F 12.1 °F 1022.9 in NE 1.6 mph 4.8 mph 58 % 0.0 in
05:05 20.9 °F 11.8 °F 1022.9 in NE 3.2 mph 8.0 mph 56 % 0.0 in
05:15 20.6 °F 11.5 °F 1022.9 in NE 1.6 mph 4.8 mph 56 % 0.0 in
05:25 20.9 °F 11.5 °F 1022.9 in NE 4.8 mph 6.4 mph 55 % 0.0 in
05:35 21.9 °F 12.2 °F 1023.9 in East 1.6 mph 3.2 mph 54 % 0.0 in
05:45 21.9 °F 11.9 °F 1023.9 in ESE 1.6 mph 6.4 mph 53 % 0.0 in
05:55 22.1 °F 11.8 °F 1023.9 in East 4.8 mph 6.4 mph 52 % 0.0 in
06:05 21.9 °F 11.6 °F 1022.9 in ESE 3.2 mph 6.4 mph 52 % 0.0 in
06:15 21.8 °F 11.5 °F 1022.9 in East 4.8 mph 6.4 mph 52 % 0.0 in
06:25 22.2 °F 11.9 °F 1023.9 in ENE 4.8 mph 6.4 mph 52 % 0.0 in
06:35 22.8 °F 12.1 °F 1023.9 in ESE 4.8 mph 6.4 mph 51 % 0.0 in
06:45 22.8 °F 11.8 °F 1023.9 in ESE 1.6 mph 9.7 mph 50 % 0.0 in
06:55 23.1 °F 11.5 °F 1023.9 in East 8.0 mph 8.0 mph 48 % 0.0 in
07:05 23.6 °F 11.9 °F 1023.9 in SE 4.8 mph 8.0 mph 48 % 0.0 in
07:15 23.6 °F 11.9 °F 1023.9 in SE 3.2 mph 8.0 mph 48 % 0.0 in
07:25 23.2 °F 11.3 °F 1022.9 in ESE 9.7 mph 12.9 mph 47 % 0.0 in
12:33 23.6 °F 11.6 °F 1023.9 in West 9.3 mph 9.3 mph 47 % 0.0 in
12:38 23.7 °F 11.4 °F 1023.9 in ENE 9.3 mph 9.3 mph 46 % 0.0 in
12:43 23.7 °F 11.4 °F 1023.9 in NE 14.8 mph 14.8 mph 46 % 0.0 in
12:48 23.4 °F 10.8 °F 1023.9 in SSE 11.1 mph 11.1 mph 45 % 0.0 in
12:53 23.8 °F 11.5 °F 1023.9 in SSE 9.7 mph 9.7 mph 46 % 0.0 in
12:58 23.7 °F 11.1 °F 1023.9 in ESE 14.8 mph 14.8 mph 45 % 0.0 in
13:03 23.9 °F 11.2 °F 1023.9 in SE 7.4 mph 7.4 mph 45 % 0.0 in
13:08 24.2 °F 11.2 °F 1023.9 in South 9.3 mph 9.3 mph 44 % 0.0 in
13:13 24.6 °F 11.6 °F 1023.9 in SE 13.0 mph 13.0 mph 44 % 0.0 in
13:18 23.8 °F 11.2 °F 1023.9 in ESE 11.9 mph 11.9 mph 45 % 0.0 in
13:23 23.4 °F 10.8 °F 1023.9 in South 11.1 mph 11.1 mph 45 % 0.0 in
13:28 23.6 °F 10.9 °F 1023.9 in ESE 11.1 mph 11.1 mph 45 % 0.0 in
13:33 23.7 °F 11.1 °F 1023.9 in ESE 20.6 mph 20.6 mph 45 % 0.0 in
13:38 23.5 °F 10.9 °F 1023.9 in ESE 18.5 mph 18.5 mph 45 % 0.0 in
13:43 23.3 °F 10.7 °F 1023.9 in SE 22.2 mph 22.2 mph 45 % 0.0 in
13:48 23.4 °F 10.8 °F 1023.9 in ESE 18.0 mph 18.0 mph 45 % 0.0 in
13:53 23.7 °F 11.1 °F 1023.9 in ESE 13.0 mph 13.0 mph 45 % 0.0 in
13:58 23.9 °F 11.2 °F 1023.9 in ESE 14.0 mph 14.0 mph 45 % 0.0 in
14:03 23.6 °F 11.3 °F 1023.9 in NNE 10.3 mph 10.3 mph 46 % 0.0 in
14:08 23.0 °F 10.4 °F 1023.9 in ESE 14.8 mph 14.8 mph 45 % 0.0 in
14:13 23.0 °F 10.8 °F 1023.9 in ESE 14.8 mph 14.8 mph 46 % 0.0 in
14:18 23.3 °F 11.0 °F 1023.9 in ENE 13.0 mph 13.0 mph 46 % 0.0 in
14:23 23.3 °F 11.0 °F 1023.9 in SSW 14.8 mph 14.8 mph 46 % 0.0 in
14:28 23.2 °F 10.9 °F 1023.9 in ESE 13.0 mph 13.0 mph 46 % 0.0 in
14:33 23.2 °F 10.9 °F 1023.9 in SE 16.1 mph 16.1 mph 46 % 0.0 in
14:38 23.2 °F 10.9 °F 1023.9 in ESE 9.3 mph 9.3 mph 46 % 0.0 in
14:43 23.1 °F 10.8 °F 1023.9 in ESE 13.0 mph 13.0 mph 46 % 0.0 in
14:48 23.1 °F 10.8 °F 1023.9 in SE 9.7 mph 9.7 mph 46 % 0.0 in
14:53 22.9 °F 10.7 °F 1023.9 in NE 9.3 mph 9.3 mph 46 % 0.0 in
14:58 22.7 °F 10.5 °F 1023.9 in ESE 14.8 mph 14.8 mph 46 % 0.0 in
15:03 22.7 °F 10.8 °F 1023.9 in NE 13.0 mph 13.0 mph 47 % 0.0 in
15:08 22.9 °F 10.7 °F 1023.9 in SE 13.0 mph 13.0 mph 46 % 0.0 in
15:13 22.8 °F 10.6 °F 1023.9 in SE 13.0 mph 13.0 mph 46 % 0.0 in
15:18 23.0 °F 10.4 °F 1023.9 in ENE 13.0 mph 13.0 mph 45 % 0.0 in
15:23 23.2 °F 10.6 °F 1023.9 in ENE 16.7 mph 16.7 mph 45 % 0.0 in
15:28 23.4 °F 11.1 °F 1022.9 in ENE 14.8 mph 14.8 mph 46 % 0.0 in
15:33 23.5 °F 11.2 °F 1022.9 in ENE 11.1 mph 11.1 mph 46 % 0.0 in
15:38 23.3 °F 10.7 °F 1022.9 in ESE 14.8 mph 14.8 mph 45 % 0.0 in
15:43 23.2 °F 10.3 °F 1022.9 in ESE 16.7 mph 16.7 mph 44 % 0.0 in
15:48 23.5 °F 10.6 °F 1022.9 in East 11.4 mph 11.4 mph 44 % 0.0 in
15:53 23.7 °F 10.7 °F 1022.9 in East 12.6 mph 12.6 mph 44 % 0.0 in
15:58 23.7 °F 10.7 °F 1022.9 in ESE 13.0 mph 13.0 mph 44 % 0.0 in
16:03 23.6 °F 10.6 °F 1022.9 in NE 13.0 mph 13.0 mph 44 % 0.0 in
16:08 23.7 °F 10.4 °F 1022.9 in ESE 13.0 mph 13.0 mph 43 % 0.0 in
16:13 23.8 °F 10.4 °F 1022.9 in SSE 10.0 mph 10.0 mph 43 % 0.0 in
16:18 24.1 °F 11.1 °F 1022.9 in ESE 10.0 mph 10.0 mph 44 % 0.0 in
16:23 24.1 °F 10.7 °F 1022.9 in East 14.8 mph 14.8 mph 43 % 0.0 in
16:28 24.1 °F 10.7 °F 1022.9 in East 14.0 mph 14.0 mph 43 % 0.0 in
16:33 23.9 °F 10.6 °F 1022.9 in ENE 16.7 mph 16.7 mph 43 % 0.0 in
16:38 24.0 °F 11.0 °F 1022.9 in ENE 11.1 mph 11.1 mph 44 % 0.0 in
16:43 23.7 °F 10.4 °F 1022.9 in ENE 18.5 mph 18.5 mph 43 % 0.0 in
16:48 24.0 °F 10.7 °F 1022.9 in South 9.3 mph 9.3 mph 43 % 0.0 in
16:53 24.0 °F 10.7 °F 1022.9 in ENE 14.8 mph 14.8 mph 43 % 0.0 in
16:58 24.0 °F 10.7 °F 1021.9 in ESE 16.4 mph 16.4 mph 43 % 0.0 in
17:03 23.9 °F 10.6 °F 1021.9 in ESE 24.1 mph 24.1 mph 43 % 0.0 in
17:08 23.9 °F 10.6 °F 1021.9 in ESE 16.7 mph 16.7 mph 43 % 0.0 in
17:13 23.8 °F 10.1 °F 1021.9 in ENE 18.5 mph 18.5 mph 42 % 0.0 in
17:18 23.8 °F 10.4 °F 1021.9 in ESE 11.1 mph 11.1 mph 43 % 0.0 in
17:23 23.7 °F 10.0 °F 1021.9 in ENE 14.8 mph 14.8 mph 42 % 0.0 in
17:28 23.7 °F 10.4 °F 1021.9 in ESE 14.8 mph 14.8 mph 43 % 0.0 in
17:33 23.7 °F 10.4 °F 1021.9 in ESE 11.1 mph 11.1 mph 43 % 0.0 in
17:38 23.7 °F 10.0 °F 1021.9 in East 13.0 mph 13.0 mph 42 % 0.0 in
17:43 23.5 °F 9.8 °F 1022.9 in ESE 18.5 mph 18.5 mph 42 % 0.0 in
17:48 23.4 °F 10.1 °F 1022.9 in ENE 14.8 mph 14.8 mph 43 % 0.0 in
17:53 23.5 °F 10.2 °F 1022.9 in ESE 14.8 mph 14.8 mph 43 % 0.0 in
17:58 23.3 °F 10.0 °F 1022.9 in ESE 15.8 mph 15.8 mph 43 % 0.0 in
18:03 23.2 °F 9.9 °F 1022.9 in ESE 13.0 mph 13.0 mph 43 % 0.0 in
18:08 23.0 °F 9.7 °F 1022.9 in ESE 16.7 mph 16.7 mph 43 % 0.0 in
18:13 22.8 °F 9.9 °F 1021.9 in SSE 20.4 mph 20.4 mph 44 % 0.0 in
18:18 22.7 °F 10.2 °F 1021.9 in East 16.7 mph 16.7 mph 45 % 0.0 in
18:23 22.7 °F 9.8 °F 1021.9 in NE 10.0 mph 10.0 mph 44 % 0.0 in
18:28 22.7 °F 10.2 °F 1022.9 in ESE 13.0 mph 13.0 mph 45 % 0.0 in
18:33 22.3 °F 9.8 °F 1022.9 in SE 16.7 mph 16.7 mph 45 % 0.0 in
18:38 22.3 °F 10.1 °F 1022.9 in ESE 13.0 mph 13.0 mph 46 % 0.0 in
18:43 22.3 °F 9.8 °F 1021.9 in ENE 11.1 mph 11.1 mph 45 % 0.0 in
18:48 22.2 °F 10.0 °F 1021.9 in ESE 14.8 mph 14.8 mph 46 % 0.0 in
18:53 22.2 °F 10.0 °F 1021.9 in ESE 14.8 mph 14.8 mph 46 % 0.0 in
18:58 22.1 °F 10.3 °F 1022.9 in ESE 14.8 mph 14.8 mph 47 % 0.0 in
19:03 22.0 °F 10.2 °F 1022.9 in East 9.3 mph 9.3 mph 47 % 0.0 in
19:08 21.8 °F 10.3 °F 1022.9 in East 9.3 mph 9.3 mph 48 % 0.0 in
19:13 21.8 °F 10.3 °F 1022.9 in ENE 7.4 mph 7.4 mph 48 % 0.0 in
19:15 17.0 °F 10.1 °F 1026.0 in Calm   1.6 mph 64 % 0.0 in
19:18 21.8 °F 10.3 °F 1022.9 in ENE 7.4 mph 7.4 mph 48 % 0.0 in
19:23 21.9 °F 10.4 °F 1022.9 in ENE 9.3 mph 9.3 mph 48 % 0.0 in
19:25 16.8 °F 10.2 °F 1026.0 in Calm     65 % 0.0 in
19:28 21.9 °F 10.4 °F 1022.9 in East 5.6 mph 5.6 mph 48 % 0.0 in
19:33 21.8 °F 10.3 °F 1022.9 in East 7.4 mph 7.4 mph 48 % 0.0 in
19:35 16.7 °F 10.3 °F 1026.0 in Calm     66 % 0.0 in
19:38 21.7 °F 10.2 °F 1022.9 in ESE 9.7 mph 9.7 mph 48 % 0.0 in
19:43 21.8 °F 10.3 °F 1022.9 in ESE 5.6 mph 6.1 mph 48 % 0.0 in
19:45 16.4 °F 10.1 °F 1026.0 in Calm     66 % 0.0 in
19:48 21.7 °F 10.2 °F 1022.9 in ENE 5.6 mph 5.6 mph 48 % 0.0 in
19:49 21.7 °F 10.2 °F 1022.9 in ENE 5.6 mph 5.6 mph 48 % 0.0 in
19:54 21.6 °F 10.1 °F 1022.9 in ESE 7.4 mph 7.4 mph 48 % 0.0 in
19:55 16.3 °F 10.2 °F 1026.0 in Calm     67 % 0.0 in
19:59 21.6 °F 10.4 °F 1022.9 in East 7.4 mph 7.4 mph 49 % 0.0 in
20:04 21.5 °F 10.0 °F 1022.9 in ESE 7.4 mph 7.4 mph 48 % 0.0 in
20:05 16.2 °F 10.1 °F 1026.0 in NW 1.6 mph 3.2 mph 67 % 0.0 in
20:09 21.5 °F 10.0 °F 1022.9 in East 5.6 mph 5.8 mph 48 % 0.0 in
20:14 21.3 °F 10.2 °F 1022.9 in NE 5.6 mph 5.6 mph 49 % 0.0 in
20:15 16.1 °F 10.2 °F 1024.9 in Calm   3.2 mph 68 % 0.0 in
20:19 21.2 °F 10.1 °F 1022.9 in ENE 7.4 mph 7.4 mph 49 % 0.0 in
20:24 21.0 °F 9.9 °F 1022.9 in ESE 7.4 mph 7.4 mph 49 % 0.0 in
20:25 16.1 °F 10.2 °F 1026.0 in Calm     68 % 0.0 in
20:29 20.9 °F 10.1 °F 1023.9 in SE 5.6 mph 6.4 mph 50 % 0.0 in
20:34 20.8 °F 10.0 °F 1023.9 in ESE 7.4 mph 7.4 mph 50 % 0.0 in
20:35 16.0 °F 10.1 °F 1026.0 in WNW 1.6 mph 3.2 mph 68 % 0.0 in
20:39 20.7 °F 9.9 °F 1023.9 in ESE 7.4 mph 7.4 mph 50 % 0.0 in
20:44 20.6 °F 10.1 °F 1022.9 in East 6.1 mph 6.1 mph 51 % 0.0 in
20:45 16.0 °F 10.1 °F 1027.0 in Calm   1.6 mph 68 % 0.0 in
20:49 20.5 °F 10.0 °F 1022.9 in ENE 3.7 mph 3.7 mph 51 % 0.0 in
20:54 20.4 °F 9.9 °F 1022.9 in NE 3.7 mph 3.7 mph 51 % 0.0 in
20:55 15.9 °F 10.0 °F 1026.0 in Calm   3.2 mph 68 % 0.0 in
20:59 20.3 °F 10.1 °F 1023.9 in ESE 7.4 mph 7.4 mph 52 % 0.0 in
21:04 20.2 °F 10.0 °F 1023.9 in ENE 5.0 mph 5.0 mph 52 % 0.0 in
21:05 15.4 °F 9.5 °F 1026.0 in West 1.6 mph 3.2 mph 68 % 0.0 in
21:09 20.1 °F 9.9 °F 1023.9 in NNE 3.7 mph 3.7 mph 52 % 0.0 in
21:14 20.0 °F 9.8 °F 1022.9 in NE 3.9 mph 3.9 mph 52 % 0.0 in
21:15 14.9 °F 9.1 °F 1026.0 in WSW 3.2 mph 3.2 mph 68 % 0.0 in
21:19 19.9 °F 10.1 °F 1022.9 in NE 4.7 mph 4.7 mph 53 % 0.0 in
21:24 19.7 °F 9.8 °F 1022.9 in ENE 7.4 mph 7.4 mph 53 % 0.0 in
21:25 14.9 °F 9.1 °F 1026.0 in SW 4.8 mph 4.8 mph 68 % 0.0 in
21:29 19.6 °F 9.8 °F 1023.9 in NNE 3.7 mph 3.7 mph 53 % 0.0 in
21:34 19.5 °F 9.7 °F 1023.9 in NE 1.9 mph   53 % 0.0 in
21:35 14.6 °F 9.0 °F 1026.0 in SW 3.2 mph 4.8 mph 69 % 0.0 in
21:39 19.4 °F 9.8 °F 1023.9 in NNE 3.7 mph 3.7 mph 54 % 0.0 in
21:44 19.4 °F 9.8 °F 1024.9 in NNW 1.9 mph   54 % 0.0 in
21:45 14.5 °F 9.3 °F 1026.0 in Calm   4.8 mph 71 % 0.0 in
21:49 19.3 °F 10.1 °F 1024.9 in Calm     55 % 0.0 in
21:54 19.1 °F 9.8 °F 1024.9 in NNE 3.7 mph 3.7 mph 55 % 0.0 in
21:55 14.5 °F 9.5 °F 1026.0 in Calm     72 % 0.0 in
21:59 19.0 °F 9.8 °F 1026.0 in NNE 3.7 mph 3.7 mph 55 % 0.0 in
22:04 18.9 °F 10.2 °F 1026.0 in Calm     57 % 0.0 in
22:05 14.7 °F 9.7 °F 1026.0 in Calm   1.6 mph 72 % 0.0 in
22:09 18.8 °F 10.1 °F 1026.0 in NNE 3.7 mph 3.7 mph 57 % 0.0 in
22:14 18.7 °F 10.0 °F 1024.9 in North 1.9 mph   57 % 0.0 in
22:15 14.7 °F 9.7 °F 1026.0 in Calm   1.6 mph 72 % 0.0 in
22:19 18.6 °F 10.2 °F 1024.9 in Calm     58 % 0.0 in
22:24 18.5 °F 10.1 °F 1024.9 in Calm     58 % 0.0 in
22:25 14.6 °F 9.6 °F 1026.0 in Calm     72 % 0.0 in
22:29 18.4 °F 10.2 °F 1026.0 in North 4.7 mph 4.7 mph 59 % 0.0 in
22:34 18.3 °F 10.2 °F 1026.0 in NNE 1.9 mph 1.9 mph 59 % 0.0 in
22:35 14.6 °F 9.6 °F 1026.0 in Calm     72 % 0.0 in
22:39 18.2 °F 10.3 °F 1026.0 in Calm     60 % 0.0 in
22:44 18.1 °F 10.2 °F 1026.0 in Calm     60 % 0.0 in
22:45 14.4 °F 9.4 °F 1026.0 in Calm   3.2 mph 72 % 0.0 in
22:49 18.0 °F 10.1 °F 1026.0 in NE 3.7 mph 3.7 mph 60 % 0.0 in
22:54 18.0 °F 10.1 °F 1026.0 in Calm     60 % 0.0 in
22:55 13.9 °F 8.9 °F 1026.0 in West 1.6 mph 3.2 mph 72 % 0.0 in
22:59 17.9 °F 10.3 °F 1026.0 in NNE 1.4 mph   61 % 0.0 in
23:04 17.9 °F 10.3 °F 1026.0 in ENE 2.6 mph 2.6 mph 61 % 0.0 in
23:05 13.8 °F 9.1 °F 1026.0 in Calm   1.6 mph 73 % 0.0 in
23:09 17.8 °F 10.2 °F 1026.0 in Calm     61 % 0.0 in
23:14 17.7 °F 10.3 °F 1026.0 in NE 1.9 mph   62 % 0.0 in
23:15 13.9 °F 8.9 °F 1026.0 in SW 3.2 mph 3.2 mph 72 % 0.0 in
23:19 17.6 °F 10.2 °F 1026.0 in Calm     62 % 0.0 in
23:24 17.6 °F 10.2 °F 1026.0 in Calm     62 % 0.0 in
23:25 13.8 °F 8.8 °F 1026.0 in SW 3.2 mph 3.2 mph 72 % 0.0 in
23:29 17.5 °F 10.1 °F 1026.0 in Calm     62 % 0.0 in
23:34 17.4 °F 10.1 °F 1026.0 in Calm     62 % 0.0 in
23:35 13.8 °F 9.1 °F 1026.0 in WSW 3.2 mph 3.2 mph 73 % 0.0 in
23:39 17.3 °F 10.2 °F 1026.0 in Calm     63 % 0.0 in
23:44 17.3 °F 10.2 °F 1026.0 in Calm     63 % 0.0 in
23:45 14.0 °F 9.2 °F 1026.0 in WSW 1.6 mph 3.2 mph 73 % 0.0 in
23:49 17.3 °F 10.2 °F 1026.0 in Calm     63 % 0.0 in
23:54 17.3 °F 10.2 °F 1026.0 in NNE 2.3 mph 2.3 mph 63 % 0.0 in
23:55 14.1 °F 9.3 °F 1026.0 in WSW 1.6 mph 3.2 mph 73 % 0.0 in
23:59 17.2 °F 10.1 °F 1026.0 in NNW 1.9 mph   63 % 0.0 in
Meteo Sesrovires
Elogis d' Weather Underground - 3.5 mb

Guio original per  Jim McMurry - jmcmurry@mwt.net Adaptat per a la plantilla per  Wim van der Kuil - Leuven-Template.eu

Trobareu la nostra informacio del temps tambe a:

Weather Underground

AWEKAS